createdAt,value
2022-10-28T00:01:06.101Z,13.22
2022-10-28T00:03:33.816Z,12.09
2022-10-28T00:06:09.855Z,12.55
2022-10-28T00:08:39.394Z,11.44
2022-10-28T00:11:11.321Z,12.32
2022-10-28T00:13:41.530Z,13.10
2022-10-28T00:16:11.296Z,11.69
2022-10-28T00:18:38.655Z,13.11
2022-10-28T00:21:13.830Z,12.33
2022-10-28T00:23:41.039Z,12.78
2022-10-28T00:26:12.932Z,11.96
2022-10-28T00:28:48.028Z,12.96
2022-10-28T00:31:18.031Z,11.97
2022-10-28T00:33:45.615Z,12.42
2022-10-28T00:36:14.840Z,12.93
2022-10-28T00:38:42.896Z,12.18
2022-10-28T00:41:11.878Z,11.19
2022-10-28T00:43:43.891Z,12.95
2022-10-28T00:46:19.481Z,12.61
2022-10-28T00:48:50.440Z,12.92
2022-10-28T00:51:21.516Z,12.90
2022-10-28T00:53:51.186Z,12.78
2022-10-28T00:56:19.392Z,12.75
2022-10-28T00:58:48.942Z,11.86
2022-10-28T01:01:18.865Z,11.99
2022-10-28T01:03:45.914Z,12.47
2022-10-28T01:06:12.853Z,12.46
2022-10-28T01:08:40.169Z,12.00
2022-10-28T01:11:14.984Z,12.55
2022-10-28T01:13:55.333Z,11.73
2022-10-28T01:17:03.446Z,12.53
2022-10-28T01:19:36.022Z,12.26
2022-10-28T01:22:24.293Z,12.17
2022-10-28T01:25:32.905Z,12.50
2022-10-28T01:28:37.070Z,12.45
2022-10-28T01:31:13.195Z,12.42
2022-10-28T01:34:07.051Z,12.42
2022-10-28T01:36:52.423Z,12.40
2022-10-28T01:39:24.432Z,12.08
2022-10-28T01:42:28.652Z,12.35
2022-10-28T01:45:14.654Z,12.31
2022-10-28T01:47:58.741Z,12.03
2022-10-28T01:50:32.663Z,12.18
2022-10-28T01:53:03.843Z,12.15
2022-10-28T01:55:37.500Z,12.35
2022-10-28T01:58:06.108Z,12.31
2022-10-28T02:00:35.783Z,12.03
2022-10-28T02:03:03.022Z,12.33
2022-10-28T02:05:46.581Z,11.71
2022-10-28T02:08:19.374Z,12.28
2022-10-28T02:11:03.191Z,12.20
2022-10-28T02:14:17.442Z,12.19
2022-10-28T02:16:58.980Z,12.13
2022-10-28T02:19:25.701Z,12.21
2022-10-28T02:22:15.620Z,11.93
2022-10-28T02:24:56.068Z,11.74
2022-10-28T02:27:46.958Z,12.17
2022-10-28T02:30:25.772Z,12.15
2022-10-28T02:32:57.484Z,12.01
2022-10-28T02:35:41.267Z,11.97
2022-10-28T02:38:10.692Z,12.10
2022-10-28T02:40:39.897Z,11.54
2022-10-28T02:43:10.927Z,11.75
2022-10-28T02:45:50.579Z,12.12
2022-10-28T02:48:38.664Z,11.73
2022-10-28T02:51:16.721Z,11.61
2022-10-28T02:54:08.463Z,11.66
2022-10-28T02:56:40.927Z,11.69
2022-10-28T02:59:12.490Z,11.78
2022-10-28T03:01:40.261Z,12.03
2022-10-28T03:04:07.079Z,11.92
2022-10-28T03:06:33.704Z,11.97
2022-10-28T03:09:00.559Z,11.95
2022-10-28T03:11:27.251Z,11.92
2022-10-28T03:13:53.983Z,11.87
2022-10-28T03:16:21.008Z,11.32
2022-10-28T03:18:47.617Z,11.45
2022-10-28T03:21:14.882Z,11.91
2022-10-28T03:23:41.717Z,11.49
2022-10-28T03:26:08.537Z,11.54
2022-10-28T03:28:35.775Z,11.42
2022-10-28T03:31:02.588Z,11.61
2022-10-28T03:33:29.602Z,11.31
2022-10-28T03:35:59.649Z,11.29
2022-10-28T03:38:26.244Z,11.23
2022-10-28T03:40:53.190Z,11.45
2022-10-28T03:43:19.717Z,11.40
2022-10-28T03:45:47.751Z,11.38
2022-10-28T03:48:14.482Z,11.33
2022-10-28T03:50:41.137Z,11.48
2022-10-28T03:53:07.905Z,11.40
2022-10-28T03:55:34.576Z,11.34
2022-10-28T03:58:01.886Z,11.34
2022-10-28T04:00:29.387Z,11.41
2022-10-28T04:03:01.442Z,10.93
2022-10-28T04:05:31.147Z,11.32
2022-10-28T04:08:07.686Z,11.28
2022-10-28T04:10:38.052Z,10.20
2022-10-28T04:13:06.319Z,10.12
2022-10-28T04:15:35.153Z,10.93
2022-10-28T04:18:02.846Z,11.01
2022-10-28T04:20:32.463Z,11.25
2022-10-28T04:23:03.572Z,11.32
2022-10-28T04:25:30.638Z,10.97
2022-10-28T04:28:00.085Z,11.22
2022-10-28T04:30:27.097Z,11.39
2022-10-28T04:32:56.189Z,10.95
2022-10-28T04:35:27.966Z,11.36
2022-10-28T04:38:00.076Z,10.91
2022-10-28T04:40:30.905Z,10.95
2022-10-28T04:42:58.855Z,11.36
2022-10-28T04:45:36.645Z,10.48
2022-10-28T04:48:03.657Z,10.31
2022-10-28T04:50:30.547Z,10.80
2022-10-28T04:52:57.152Z,11.15
2022-10-28T04:55:23.905Z,11.24
2022-10-28T04:57:58.655Z,10.97
2022-10-28T05:00:32.030Z,11.35
2022-10-28T05:03:02.866Z,11.34
2022-10-28T05:05:29.677Z,11.30
2022-10-28T05:07:56.547Z,10.63
2022-10-28T05:10:23.549Z,10.44
2022-10-28T05:12:50.274Z,10.79
2022-10-28T05:15:17.058Z,9.89
2022-10-28T05:17:45.277Z,9.92
2022-10-28T05:20:13.478Z,10.55
2022-10-28T05:22:55.411Z,10.35
2022-10-28T05:25:23.289Z,10.28
2022-10-28T05:27:50.617Z,9.66
2022-10-28T05:30:22.969Z,10.40
2022-10-28T05:32:54.523Z,10.12
2022-10-28T05:35:22.713Z,10.19
2022-10-28T05:37:54.546Z,10.00
2022-10-28T05:40:21.154Z,11.07
2022-10-28T05:42:47.873Z,10.32
2022-10-28T05:45:15.253Z,10.15
2022-10-28T05:47:47.266Z,11.19
2022-10-28T05:50:16.303Z,11.23
2022-10-28T05:52:48.679Z,11.23
2022-10-28T05:55:16.416Z,10.98
2022-10-28T05:57:42.927Z,11.24
2022-10-28T06:00:10.368Z,11.24
2022-10-28T06:02:40.925Z,10.90
2022-10-28T06:05:08.331Z,11.24
2022-10-28T06:07:35.403Z,11.10
2022-10-28T06:10:03.183Z,10.75
2022-10-28T06:12:28.499Z,11.35
2022-10-28T06:14:55.766Z,11.23
2022-10-28T06:17:31.747Z,11.29
2022-10-28T06:19:58.588Z,11.08
2022-10-28T06:22:25.129Z,10.53
2022-10-28T06:24:51.712Z,11.36
2022-10-28T06:27:18.306Z,10.54
2022-10-28T06:29:44.903Z,11.08
2022-10-28T06:32:11.534Z,11.15
2022-10-28T06:34:38.191Z,11.84
2022-10-28T06:37:09.368Z,11.86
2022-10-28T06:39:38.320Z,11.23
2022-10-28T06:42:04.980Z,11.85
2022-10-28T06:44:31.717Z,11.86
2022-10-28T06:47:00.266Z,12.06
2022-10-28T06:49:28.246Z,11.92
2022-10-28T06:51:54.777Z,12.08
2022-10-28T06:54:21.417Z,11.92
2022-10-28T06:56:48.087Z,11.57
2022-10-28T06:59:14.683Z,11.71
2022-10-28T07:01:41.661Z,11.94
2022-10-28T07:04:11.664Z,12.44
2022-10-28T07:06:38.884Z,11.40
2022-10-28T07:09:06.402Z,12.13
2022-10-28T07:11:33.908Z,12.32
2022-10-28T07:14:00.776Z,12.42
2022-10-28T07:16:29.725Z,12.67
2022-10-28T07:18:56.375Z,12.19
2022-10-28T07:21:28.559Z,12.53
2022-10-28T07:23:58.769Z,12.93
2022-10-28T07:26:26.192Z,12.53
2022-10-28T07:28:53.402Z,12.98
2022-10-28T07:31:20.143Z,13.11
2022-10-28T07:33:52.643Z,13.14
2022-10-28T07:36:19.473Z,13.02
2022-10-28T07:38:49.439Z,12.65
2022-10-28T07:41:16.207Z,12.13
2022-10-28T07:43:43.055Z,13.33
2022-10-28T07:46:12.272Z,12.76
2022-10-28T07:48:39.310Z,12.35
2022-10-28T07:51:07.437Z,12.80
2022-10-28T07:53:34.876Z,12.45
2022-10-28T07:56:05.813Z,12.91
2022-10-28T07:58:32.441Z,13.29
2022-10-28T08:01:15.862Z,13.75
2022-10-28T08:03:42.772Z,13.86
2022-10-28T08:06:18.168Z,13.15
2022-10-28T08:08:46.737Z,14.31
2022-10-28T08:11:27.692Z,14.23
2022-10-28T08:13:55.229Z,14.38
2022-10-28T08:16:21.873Z,14.56
2022-10-28T08:18:48.680Z,13.89
2022-10-28T08:21:15.947Z,13.52
2022-10-28T08:23:46.526Z,13.92
2022-10-28T08:26:14.867Z,14.86
2022-10-28T08:28:42.185Z,15.18
2022-10-28T08:31:10.091Z,14.66
2022-10-28T08:33:42.340Z,15.29
2022-10-28T08:36:11.819Z,15.40
2022-10-28T08:38:42.916Z,15.38
2022-10-28T08:41:32.809Z,15.73
2022-10-28T08:43:59.328Z,15.97
2022-10-28T08:46:31.329Z,16.12
2022-10-28T08:49:00.260Z,15.63
2022-10-28T08:51:59.231Z,16.17
2022-10-28T08:54:50.481Z,16.18
2022-10-28T08:57:21.872Z,16.21
2022-10-28T08:59:52.043Z,16.35
2022-10-28T09:02:22.965Z,15.87
2022-10-28T09:05:07.234Z,16.48
2022-10-28T09:07:37.094Z,15.91
2022-10-28T09:10:05.702Z,15.52
2022-10-28T09:12:48.513Z,15.73
2022-10-28T09:15:43.348Z,16.77
2022-10-28T09:18:17.903Z,16.83
2022-10-28T09:20:53.400Z,16.67
2022-10-28T09:23:44.855Z,16.92
2022-10-28T09:26:29.056Z,16.93
2022-10-28T09:29:20.591Z,16.82
2022-10-28T09:31:52.776Z,16.14
2022-10-28T09:34:49.941Z,17.16
2022-10-28T09:37:26.947Z,16.98
2022-10-28T09:39:57.450Z,16.51
2022-10-28T09:42:29.928Z,17.33
2022-10-28T09:45:04.679Z,17.33
2022-10-28T09:47:37.214Z,17.30
2022-10-28T09:50:08.359Z,17.61
2022-10-28T09:52:43.070Z,17.88
2022-10-28T09:55:20.213Z,17.85
2022-10-28T09:57:46.773Z,17.42
2022-10-28T10:00:14.955Z,18.02
2022-10-28T10:02:42.697Z,18.30
2022-10-28T10:05:17.447Z,18.41
2022-10-28T10:07:53.448Z,18.03
2022-10-28T10:10:27.817Z,18.42
2022-10-28T10:12:59.364Z,18.71
2022-10-28T10:15:39.018Z,18.65
2022-10-28T10:18:11.281Z,18.54
2022-10-28T10:20:48.533Z,18.84
2022-10-28T10:23:29.086Z,18.93
2022-10-28T10:26:08.230Z,19.06
2022-10-28T10:28:46.962Z,19.19
2022-10-28T10:31:20.108Z,19.00
2022-10-28T10:33:51.214Z,18.98
2022-10-28T10:36:21.137Z,19.38
2022-10-28T10:38:54.152Z,18.95
2022-10-28T10:41:41.811Z,19.43
2022-10-28T11:01:42.496Z,18.81
2022-10-28T11:04:17.033Z,19.63
2022-10-28T11:06:45.081Z,19.71
2022-10-28T11:09:33.873Z,19.43
2022-10-28T11:12:00.818Z,19.79
2022-10-28T11:14:30.250Z,19.73
2022-10-28T11:17:01.971Z,19.88
2022-10-28T11:19:31.413Z,19.03
2022-10-28T11:22:15.220Z,18.84
2022-10-28T11:25:12.778Z,20.06
2022-10-28T11:28:12.773Z,19.82
2022-10-28T11:31:01.505Z,20.16
2022-10-28T11:33:51.440Z,20.24
2022-10-28T11:36:28.410Z,20.07
2022-10-28T11:39:19.348Z,20.34
2022-10-28T11:42:04.770Z,20.36
2022-10-28T11:45:08.846Z,20.41
2022-10-28T11:47:46.329Z,20.58
2022-10-28T11:50:39.117Z,20.61
2022-10-28T11:53:24.325Z,20.63
2022-10-28T11:56:10.631Z,20.57
2022-10-28T11:58:43.406Z,20.36
2022-10-28T12:01:33.471Z,20.46
2022-10-28T12:04:21.404Z,20.67
2022-10-28T12:07:12.781Z,21.06
2022-10-28T12:10:33.196Z,21.21
2022-10-28T12:13:41.429Z,21.54
2022-10-28T12:16:22.059Z,21.62
2022-10-28T12:18:59.272Z,21.87
2022-10-28T12:21:36.745Z,22.18
2022-10-28T12:24:06.667Z,22.41
2022-10-28T12:26:42.958Z,22.61
2022-10-28T12:29:25.587Z,22.81
2022-10-28T12:31:57.886Z,22.93
2022-10-28T12:34:31.923Z,23.04
2022-10-28T12:37:10.317Z,23.11
2022-10-28T12:39:48.996Z,23.00
2022-10-28T12:42:23.966Z,23.18
2022-10-28T12:44:54.050Z,23.10
2022-10-28T12:47:26.897Z,23.12
2022-10-28T12:50:04.297Z,23.19
2022-10-28T12:52:30.755Z,23.17
2022-10-28T12:57:45.719Z,22.84
2022-10-28T13:00:28.221Z,22.76
2022-10-28T13:03:07.748Z,22.84
2022-10-28T13:06:03.587Z,22.91
2022-10-28T13:11:48.033Z,22.67
2022-10-28T13:14:53.653Z,22.56
2022-10-28T13:17:28.331Z,22.51
2022-10-28T13:20:07.750Z,22.27
2022-10-28T13:23:01.443Z,22.18
2022-10-28T13:25:48.230Z,22.29
2022-10-28T13:28:18.761Z,21.80
2022-10-28T13:30:57.700Z,22.01
2022-10-28T13:33:26.825Z,22.07
2022-10-28T13:36:10.336Z,21.93
2022-10-28T13:38:38.521Z,21.73
2022-10-28T13:41:10.873Z,21.93
2022-10-28T13:43:50.054Z,21.86
2022-10-28T13:46:58.747Z,21.79
2022-10-28T13:49:28.947Z,21.72
2022-10-28T13:52:19.444Z,21.70
2022-10-28T13:54:53.211Z,21.68
2022-10-28T13:57:28.775Z,21.59
2022-10-28T14:00:06.134Z,21.55
2022-10-28T14:02:42.173Z,21.60
2022-10-28T14:05:11.449Z,21.42
2022-10-28T14:07:53.514Z,21.12
2022-10-28T14:10:24.976Z,21.44
2022-10-28T14:12:59.257Z,21.41
2022-10-28T14:15:28.264Z,21.40
2022-10-28T14:18:09.925Z,21.23
2022-10-28T14:20:46.459Z,21.24
2022-10-28T14:23:22.102Z,21.26
2022-10-28T14:25:51.715Z,21.26
2022-10-28T14:28:27.413Z,21.20
2022-10-28T14:31:10.385Z,21.19
2022-10-28T14:33:43.094Z,21.22
2022-10-28T14:36:18.943Z,21.21
2022-10-28T14:38:58.345Z,21.22
2022-10-28T14:41:34.409Z,21.20
2022-10-28T14:44:25.972Z,21.15
2022-10-28T14:46:58.707Z,21.12
2022-10-28T14:49:34.405Z,20.64
2022-10-28T14:52:18.919Z,21.03
2022-10-28T14:54:52.274Z,20.79
2022-10-28T14:57:22.319Z,20.86
2022-10-28T14:59:51.018Z,20.83
2022-10-28T15:02:22.009Z,20.15
2022-10-28T15:05:00.464Z,20.66
2022-10-28T15:07:27.096Z,19.91
2022-10-28T15:09:55.485Z,19.85
2022-10-28T15:12:26.228Z,20.35
2022-10-28T15:14:56.252Z,20.20
2022-10-28T15:17:39.299Z,20.39
2022-10-28T15:20:26.879Z,20.32
2022-10-28T15:22:54.902Z,20.30
2022-10-28T15:25:23.088Z,19.46
2022-10-28T15:27:53.486Z,20.05
2022-10-28T15:30:23.787Z,20.27
2022-10-28T15:32:52.978Z,20.12
2022-10-28T15:35:29.878Z,20.24
2022-10-28T15:38:00.302Z,20.19
2022-10-28T15:40:32.667Z,20.12
2022-10-28T15:43:01.883Z,20.06
2022-10-28T15:45:31.390Z,19.46
2022-10-28T15:47:59.614Z,20.06
2022-10-28T15:50:28.632Z,20.25
2022-10-28T15:53:23.173Z,20.10
2022-10-28T15:56:09.473Z,20.26
2022-10-28T15:58:40.120Z,20.13
2022-10-28T16:01:28.279Z,19.89
2022-10-28T16:03:54.975Z,19.79
2022-10-28T16:06:27.466Z,19.36
2022-10-28T16:09:12.979Z,19.52
2022-10-28T16:11:43.497Z,19.36
2022-10-28T16:14:31.288Z,19.18
2022-10-28T16:17:18.138Z,19.06
2022-10-28T16:19:51.482Z,18.02
2022-10-28T16:22:19.080Z,18.68
2022-10-28T16:24:45.929Z,18.53
2022-10-28T16:27:18.568Z,18.59
2022-10-28T16:29:45.459Z,18.20
2022-10-28T16:32:13.156Z,18.38
2022-10-28T16:34:40.362Z,17.82
2022-10-28T16:37:32.007Z,17.91
2022-10-28T16:39:58.577Z,17.94
2022-10-28T16:42:25.765Z,17.72
2022-10-28T16:44:52.632Z,17.05
2022-10-28T16:47:21.796Z,17.82
2022-10-28T16:49:52.570Z,17.82
2022-10-28T16:52:30.043Z,17.93
2022-10-28T16:54:57.077Z,17.86
2022-10-28T16:59:56.158Z,17.43
2022-10-28T17:02:28.375Z,17.58
2022-10-28T17:04:55.585Z,17.75
2022-10-28T17:07:22.151Z,17.61
2022-10-28T17:09:48.798Z,17.18
2022-10-28T17:12:17.979Z,17.74
2022-10-28T17:14:44.859Z,17.73
2022-10-28T17:17:12.183Z,17.67
2022-10-28T17:19:39.775Z,17.58
2022-10-28T17:22:09.236Z,16.82
2022-10-28T17:24:36.628Z,17.48
2022-10-28T17:27:03.818Z,17.69
2022-10-28T17:29:30.348Z,17.59
2022-10-28T17:31:56.833Z,16.58
2022-10-28T17:34:23.339Z,17.58
2022-10-28T17:36:49.856Z,16.70
2022-10-28T17:39:19.648Z,17.42
2022-10-28T17:41:48.496Z,17.44
2022-10-28T17:44:15.046Z,16.78
2022-10-28T17:46:41.569Z,16.53
2022-10-28T17:49:08.809Z,16.58
2022-10-28T17:51:36.067Z,17.44
2022-10-28T17:54:04.759Z,16.94
2022-10-28T17:56:32.476Z,17.49
2022-10-28T17:59:01.805Z,16.96
2022-10-28T18:01:32.971Z,16.60
2022-10-28T18:04:00.117Z,17.16
2022-10-28T18:06:26.979Z,17.44
2022-10-28T18:08:53.701Z,17.04
2022-10-28T18:11:20.871Z,17.31
2022-10-28T18:13:49.917Z,17.49
2022-10-28T18:16:22.304Z,17.28
2022-10-28T18:18:48.924Z,17.12
2022-10-28T18:21:15.488Z,16.42
2022-10-28T18:23:42.345Z,17.36
2022-10-28T18:26:16.074Z,17.37
2022-10-28T18:28:45.935Z,17.29
2022-10-28T18:31:14.939Z,17.37
2022-10-28T18:33:42.688Z,17.26
2022-10-28T18:36:18.100Z,17.30
2022-10-28T18:38:44.749Z,17.10
2022-10-28T18:41:19.532Z,17.25
2022-10-28T18:43:46.509Z,17.18
2022-10-28T18:46:14.342Z,17.21
2022-10-28T18:48:41.398Z,17.18
2022-10-28T18:51:11.457Z,17.13
2022-10-28T18:53:40.290Z,16.84
2022-10-28T18:56:09.831Z,16.91
2022-10-28T18:58:36.604Z,17.05
2022-10-28T19:01:12.477Z,17.04
2022-10-28T19:03:39.787Z,15.91
2022-10-28T19:06:09.245Z,17.05
2022-10-28T19:08:35.778Z,16.69
2022-10-28T19:11:03.503Z,16.84
2022-10-28T19:13:34.201Z,16.74
2022-10-28T19:16:00.847Z,16.53
2022-10-28T19:18:27.543Z,16.89
2022-10-28T19:20:57.375Z,16.79
2022-10-28T19:23:23.958Z,16.93
2022-10-28T19:25:55.716Z,16.16
2022-10-28T19:28:22.704Z,16.90
2022-10-28T19:30:49.324Z,16.74
2022-10-28T19:33:15.984Z,16.99
2022-10-28T19:35:42.513Z,16.27
2022-10-28T19:38:09.050Z,16.29
2022-10-28T19:40:35.548Z,16.28
2022-10-28T19:43:02.064Z,16.68
2022-10-28T19:45:28.599Z,16.85
2022-10-28T19:47:55.392Z,16.71
2022-10-28T19:50:22.140Z,16.69
2022-10-28T19:52:48.657Z,16.72
2022-10-28T19:55:15.309Z,16.69
2022-10-28T19:57:41.819Z,16.14
2022-10-28T20:00:09.821Z,16.69
2022-10-28T20:02:39.024Z,16.66
2022-10-28T20:05:06.039Z,16.41
2022-10-28T20:07:32.518Z,16.75
2022-10-28T20:12:30.572Z,16.50
2022-10-28T20:14:57.105Z,16.58
2022-10-28T20:17:23.619Z,16.71
2022-10-28T20:19:50.168Z,15.71
2022-10-28T20:22:17.262Z,16.66
2022-10-28T20:24:46.210Z,16.49
2022-10-28T20:27:12.788Z,16.67
2022-10-28T20:29:39.343Z,15.55
2022-10-28T20:32:05.958Z,16.66
2022-10-28T20:34:32.497Z,16.29
2022-10-28T20:36:59.037Z,16.29
2022-10-28T20:39:26.145Z,16.43
2022-10-28T20:41:52.821Z,16.26
2022-10-28T20:44:19.940Z,16.10
2022-10-28T20:46:49.917Z,16.47
2022-10-28T20:49:16.703Z,15.88
2022-10-28T20:51:43.331Z,16.40
2022-10-28T20:54:09.890Z,16.10
2022-10-28T20:56:38.358Z,16.05
2022-10-28T20:59:05.075Z,15.96
2022-10-28T21:01:37.150Z,16.23
2022-10-28T21:04:06.971Z,16.17
2022-10-28T21:06:34.011Z,16.14
2022-10-28T21:09:00.509Z,16.07
2022-10-28T21:11:28.642Z,15.76
2022-10-28T21:13:58.272Z,15.99
2022-10-28T21:16:26.488Z,15.67
2022-10-28T21:18:53.967Z,15.91
2022-10-28T21:21:21.481Z,15.87
2022-10-28T21:23:48.081Z,15.67
2022-10-28T21:26:15.175Z,15.64
2022-10-28T21:28:41.880Z,14.53
2022-10-28T21:31:14.096Z,15.09
2022-10-28T21:33:42.367Z,15.35
2022-10-28T21:36:17.047Z,15.59
2022-10-28T21:38:44.342Z,15.50
2022-10-28T21:41:19.377Z,15.04
2022-10-28T21:43:48.022Z,14.32
2022-10-28T21:46:17.197Z,14.99
2022-10-28T21:48:44.007Z,15.47
2022-10-28T21:51:14.804Z,15.38
2022-10-28T21:53:43.061Z,15.43
2022-10-28T21:56:16.536Z,15.23
2022-10-28T21:58:43.800Z,15.20
2022-10-28T22:01:16.640Z,15.08
2022-10-28T22:03:43.399Z,15.33
2022-10-28T22:06:10.664Z,15.29
2022-10-28T22:08:40.652Z,15.16
2022-10-28T22:11:12.248Z,14.16
2022-10-28T22:13:38.804Z,13.98
2022-10-28T22:16:08.005Z,15.03
2022-10-28T22:18:36.533Z,15.06
2022-10-28T22:21:05.555Z,14.76
2022-10-28T22:23:33.443Z,15.07
2022-10-28T22:26:05.458Z,15.07
2022-10-28T22:28:32.160Z,15.08
2022-10-28T22:31:04.260Z,14.46
2022-10-28T22:33:30.858Z,15.08
2022-10-28T22:35:58.879Z,15.02
2022-10-28T22:38:25.730Z,15.05
2022-10-28T22:41:12.648Z,14.94
2022-10-28T22:43:40.251Z,15.02
2022-10-28T22:46:07.328Z,14.75
2022-10-28T22:48:34.108Z,14.81
2022-10-28T22:51:01.851Z,14.99
2022-10-28T22:53:28.569Z,14.66
2022-10-28T22:55:56.195Z,14.95
2022-10-28T22:58:24.530Z,14.79
2022-10-28T23:00:51.089Z,14.60
2022-10-28T23:03:17.642Z,14.66
2022-10-28T23:05:44.170Z,14.72
2022-10-28T23:08:17.021Z,14.77
2022-10-28T23:10:43.536Z,14.53
2022-10-28T23:13:12.239Z,14.95
2022-10-28T23:15:38.751Z,14.52
2022-10-28T23:18:05.337Z,14.97
2022-10-28T23:20:32.059Z,14.72
2022-10-28T23:22:58.609Z,14.92
2022-10-28T23:25:25.191Z,14.87
2022-10-28T23:27:51.831Z,14.94
2022-10-28T23:30:18.362Z,14.73
2022-10-28T23:32:44.893Z,14.71
2022-10-28T23:35:11.435Z,14.91
2022-10-28T23:37:37.960Z,14.35
2022-10-28T23:40:05.232Z,14.74
2022-10-28T23:42:31.847Z,14.71
2022-10-28T23:44:58.573Z,14.10
2022-10-28T23:47:25.076Z,14.56
2022-10-28T23:49:52.854Z,14.60
2022-10-28T23:52:19.606Z,14.31
2022-10-28T23:54:46.494Z,14.21
2022-10-28T23:57:13.146Z,14.45
2022-10-28T23:59:39.979Z,14.46
